sensor_id;sensor_type;location;lat;lon;timestamp;P1;durP1;ratioP1;P2;durP2;ratioP2
65033;SDS011;51601;51.356;12.458;2023-12-14T00:04:11;24.38;;;12.52;;
65033;SDS011;51601;51.356;12.458;2023-12-14T00:08:29;22.00;;;12.43;;
65033;SDS011;51601;51.356;12.458;2023-12-14T00:12:50;23.75;;;12.93;;
65033;SDS011;51601;51.356;12.458;2023-12-14T00:17:14;24.25;;;12.80;;
65033;SDS011;51601;51.356;12.458;2023-12-14T00:21:33;27.80;;;12.13;;
65033;SDS011;51601;51.356;12.458;2023-12-14T00:25:51;25.58;;;11.98;;
65033;SDS011;51601;51.356;12.458;2023-12-14T00:30:09;27.92;;;12.73;;
65033;SDS011;51601;51.356;12.458;2023-12-14T00:34:28;32.05;;;12.32;;
65033;SDS011;51601;51.356;12.458;2023-12-14T00:38:48;36.50;;;13.10;;
65033;SDS011;51601;51.356;12.458;2023-12-14T00:43:09;25.83;;;11.68;;
65033;SDS011;51601;51.356;12.458;2023-12-14T00:47:27;26.25;;;11.82;;
65033;SDS011;51601;51.356;12.458;2023-12-14T00:51:47;24.97;;;10.90;;
65033;SDS011;51601;51.356;12.458;2023-12-14T00:56:58;26.48;;;11.05;;
65033;SDS011;51601;51.356;12.458;2023-12-14T01:01:17;26.15;;;10.52;;
65033;SDS011;51601;51.356;12.458;2023-12-14T01:05:35;24.17;;;10.20;;
65033;SDS011;51601;51.356;12.458;2023-12-14T01:09:56;24.88;;;11.05;;
65033;SDS011;51601;51.356;12.458;2023-12-14T01:14:14;26.33;;;10.40;;
65033;SDS011;51601;51.356;12.458;2023-12-14T01:18:32;25.92;;;11.02;;
65033;SDS011;51601;51.356;12.458;2023-12-14T01:22:53;27.53;;;9.80;;
65033;SDS011;51601;51.356;12.458;2023-12-14T01:27:17;26.23;;;10.20;;
65033;SDS011;51601;51.356;12.458;2023-12-14T01:31:35;27.63;;;9.75;;
65033;SDS011;51601;51.356;12.458;2023-12-14T01:35:56;27.73;;;10.17;;
65033;SDS011;51601;51.356;12.458;2023-12-14T01:40:18;26.63;;;10.52;;
65033;SDS011;51601;51.356;12.458;2023-12-14T01:44:40;37.67;;;10.30;;
65033;SDS011;51601;51.356;12.458;2023-12-14T01:49:00;30.53;;;10.57;;
65033;SDS011;51601;51.356;12.458;2023-12-14T01:53:21;37.78;;;11.32;;
65033;SDS011;51601;51.356;12.458;2023-12-14T01:57:39;29.33;;;10.82;;
65033;SDS011;51601;51.356;12.458;2023-12-14T02:02:01;38.08;;;10.43;;
65033;SDS011;51601;51.356;12.458;2023-12-14T02:06:24;32.20;;;8.80;;
65033;SDS011;51601;51.356;12.458;2023-12-14T02:10:42;35.50;;;9.82;;
65033;SDS011;51601;51.356;12.458;2023-12-14T02:15:04;48.33;;;10.93;;
65033;SDS011;51601;51.356;12.458;2023-12-14T02:19:25;35.13;;;10.47;;
65033;SDS011;51601;51.356;12.458;2023-12-14T02:23:47;28.80;;;8.68;;
65033;SDS011;51601;51.356;12.458;2023-12-14T02:28:07;36.95;;;9.35;;
65033;SDS011;51601;51.356;12.458;2023-12-14T02:32:27;31.17;;;9.87;;
65033;SDS011;51601;51.356;12.458;2023-12-14T02:36:48;38.60;;;10.57;;
65033;SDS011;51601;51.356;12.458;2023-12-14T02:41:13;59.85;;;11.52;;
65033;SDS011;51601;51.356;12.458;2023-12-14T02:45:34;44.25;;;10.32;;
65033;SDS011;51601;51.356;12.458;2023-12-14T02:49:59;38.13;;;9.90;;
65033;SDS011;51601;51.356;12.458;2023-12-14T02:54:17;51.83;;;9.60;;
65033;SDS011;51601;51.356;12.458;2023-12-14T02:58:36;37.85;;;10.80;;
65033;SDS011;51601;51.356;12.458;2023-12-14T03:02:56;34.33;;;10.27;;
65033;SDS011;51601;51.356;12.458;2023-12-14T03:07:17;33.08;;;10.52;;
65033;SDS011;51601;51.356;12.458;2023-12-14T03:11:35;32.13;;;10.25;;
65033;SDS011;51601;51.356;12.458;2023-12-14T03:15:54;35.70;;;9.73;;
65033;SDS011;51601;51.356;12.458;2023-12-14T03:20:11;28.92;;;9.70;;
65033;SDS011;51601;51.356;12.458;2023-12-14T03:24:32;28.77;;;10.30;;
65033;SDS011;51601;51.356;12.458;2023-12-14T03:28:50;27.85;;;9.25;;
65033;SDS011;51601;51.356;12.458;2023-12-14T03:33:10;32.67;;;9.93;;
65033;SDS011;51601;51.356;12.458;2023-12-14T03:37:30;24.98;;;9.40;;
65033;SDS011;51601;51.356;12.458;2023-12-14T03:41:47;25.40;;;8.98;;
65033;SDS011;51601;51.356;12.458;2023-12-14T03:46:05;24.53;;;8.80;;
65033;SDS011;51601;51.356;12.458;2023-12-14T03:50:25;27.85;;;9.43;;
65033;SDS011;51601;51.356;12.458;2023-12-14T03:54:45;22.75;;;8.40;;
65033;SDS011;51601;51.356;12.458;2023-12-14T03:59:03;23.17;;;8.70;;
65033;SDS011;51601;51.356;12.458;2023-12-14T04:03:21;19.42;;;8.60;;
65033;SDS011;51601;51.356;12.458;2023-12-14T04:07:40;21.65;;;7.47;;
65033;SDS011;51601;51.356;12.458;2023-12-14T04:12:00;18.88;;;7.95;;
65033;SDS011;51601;51.356;12.458;2023-12-14T04:16:21;21.07;;;8.00;;
65033;SDS011;51601;51.356;12.458;2023-12-14T04:20:45;21.95;;;8.10;;
65033;SDS011;51601;51.356;12.458;2023-12-14T04:25:06;22.40;;;8.82;;
65033;SDS011;51601;51.356;12.458;2023-12-14T04:29:27;20.70;;;8.50;;
65033;SDS011;51601;51.356;12.458;2023-12-14T04:33:46;20.48;;;8.50;;
65033;SDS011;51601;51.356;12.458;2023-12-14T04:38:07;20.73;;;9.13;;
65033;SDS011;51601;51.356;12.458;2023-12-14T04:42:26;24.50;;;9.70;;
65033;SDS011;51601;51.356;12.458;2023-12-14T04:46:46;25.02;;;10.90;;
65033;SDS011;51601;51.356;12.458;2023-12-14T04:51:10;32.03;;;10.73;;
65033;SDS011;51601;51.356;12.458;2023-12-14T04:55:28;28.80;;;10.60;;
65033;SDS011;51601;51.356;12.458;2023-12-14T04:59:51;30.53;;;10.63;;
65033;SDS011;51601;51.356;12.458;2023-12-14T05:04:10;29.52;;;11.23;;
65033;SDS011;51601;51.356;12.458;2023-12-14T05:08:29;31.58;;;11.98;;
65033;SDS011;51601;51.356;12.458;2023-12-14T05:12:47;26.83;;;10.70;;
65033;SDS011;51601;51.356;12.458;2023-12-14T05:17:06;22.65;;;8.65;;
65033;SDS011;51601;51.356;12.458;2023-12-14T05:21:26;20.52;;;7.80;;
65033;SDS011;51601;51.356;12.458;2023-12-14T05:25:47;16.30;;;7.00;;
65033;SDS011;51601;51.356;12.458;2023-12-14T05:30:05;16.60;;;6.75;;
65033;SDS011;51601;51.356;12.458;2023-12-14T05:34:28;16.13;;;5.85;;
65033;SDS011;51601;51.356;12.458;2023-12-14T05:38:50;13.75;;;5.93;;
65033;SDS011;51601;51.356;12.458;2023-12-14T05:43:08;21.53;;;7.60;;
65033;SDS011;51601;51.356;12.458;2023-12-14T05:47:26;20.42;;;8.70;;
65033;SDS011;51601;51.356;12.458;2023-12-14T05:51:49;21.27;;;8.98;;
65033;SDS011;51601;51.356;12.458;2023-12-14T05:56:09;23.33;;;8.73;;
65033;SDS011;51601;51.356;12.458;2023-12-14T06:00:27;18.35;;;8.00;;
65033;SDS011;51601;51.356;12.458;2023-12-14T06:04:45;16.75;;;6.88;;
65033;SDS011;51601;51.356;12.458;2023-12-14T06:09:07;13.67;;;5.47;;
65033;SDS011;51601;51.356;12.458;2023-12-14T06:13:24;11.90;;;4.88;;
65033;SDS011;51601;51.356;12.458;2023-12-14T06:17:42;14.70;;;6.18;;
65033;SDS011;51601;51.356;12.458;2023-12-14T06:22:00;15.45;;;6.38;;
65033;SDS011;51601;51.356;12.458;2023-12-14T06:26:21;16.67;;;6.33;;
65033;SDS011;51601;51.356;12.458;2023-12-14T06:30:42;14.07;;;5.72;;
65033;SDS011;51601;51.356;12.458;2023-12-14T06:35:00;19.58;;;7.00;;
65033;SDS011;51601;51.356;12.458;2023-12-14T06:39:18;16.60;;;6.53;;
65033;SDS011;51601;51.356;12.458;2023-12-14T06:43:41;15.85;;;6.97;;
65033;SDS011;51601;51.356;12.458;2023-12-14T06:48:00;19.08;;;7.60;;
65033;SDS011;51601;51.356;12.458;2023-12-14T06:52:22;18.17;;;7.63;;
65033;SDS011;51601;51.356;12.458;2023-12-14T06:56:40;17.08;;;7.55;;
65033;SDS011;51601;51.356;12.458;2023-12-14T07:01:02;22.38;;;8.25;;
65033;SDS011;51601;51.356;12.458;2023-12-14T07:05:22;19.42;;;7.88;;
65033;SDS011;51601;51.356;12.458;2023-12-14T07:09:40;20.73;;;7.53;;
65033;SDS011;51601;51.356;12.458;2023-12-14T07:13:58;30.40;;;9.32;;
65033;SDS011;51601;51.356;12.458;2023-12-14T07:18:21;28.52;;;9.65;;
65033;SDS011;51601;51.356;12.458;2023-12-14T07:22:40;29.70;;;9.97;;
65033;SDS011;51601;51.356;12.458;2023-12-14T07:26:58;30.33;;;10.65;;
65033;SDS011;51601;51.356;12.458;2023-12-14T07:31:21;32.20;;;10.15;;
65033;SDS011;51601;51.356;12.458;2023-12-14T07:35:39;26.47;;;9.53;;
65033;SDS011;51601;51.356;12.458;2023-12-14T07:39:59;29.20;;;9.70;;
65033;SDS011;51601;51.356;12.458;2023-12-14T07:44:17;29.80;;;9.93;;
65033;SDS011;51601;51.356;12.458;2023-12-14T07:48:35;35.53;;;11.02;;
65033;SDS011;51601;51.356;12.458;2023-12-14T07:53:00;29.83;;;9.70;;
65033;SDS011;51601;51.356;12.458;2023-12-14T07:57:20;35.83;;;11.35;;
65033;SDS011;51601;51.356;12.458;2023-12-14T08:01:41;33.20;;;10.75;;
65033;SDS011;51601;51.356;12.458;2023-12-14T08:06:00;28.00;;;10.03;;
65033;SDS011;51601;51.356;12.458;2023-12-14T08:10:19;29.77;;;9.73;;
65033;SDS011;51601;51.356;12.458;2023-12-14T08:14:55;30.35;;;11.18;;
65033;SDS011;51601;51.356;12.458;2023-12-14T08:19:34;31.87;;;10.10;;
65033;SDS011;51601;51.356;12.458;2023-12-14T08:23:52;28.80;;;9.95;;
65033;SDS011;51601;51.356;12.458;2023-12-14T08:28:14;32.60;;;11.18;;
65033;SDS011;51601;51.356;12.458;2023-12-14T08:37:07;29.27;;;10.53;;
65033;SDS011;51601;51.356;12.458;2023-12-14T08:41:25;27.17;;;9.85;;
65033;SDS011;51601;51.356;12.458;2023-12-14T08:45:48;25.27;;;9.20;;
65033;SDS011;51601;51.356;12.458;2023-12-14T08:50:08;28.87;;;9.70;;
65033;SDS011;51601;51.356;12.458;2023-12-14T08:54:26;27.20;;;8.88;;
65033;SDS011;51601;51.356;12.458;2023-12-14T08:58:47;27.45;;;9.98;;
65033;SDS011;51601;51.356;12.458;2023-12-14T09:03:10;24.87;;;9.23;;
65033;SDS011;51601;51.356;12.458;2023-12-14T09:07:29;25.52;;;9.02;;
65033;SDS011;51601;51.356;12.458;2023-12-14T09:11:50;22.17;;;8.65;;
65033;SDS011;51601;51.356;12.458;2023-12-14T09:16:11;21.25;;;8.40;;
65033;SDS011;51601;51.356;12.458;2023-12-14T09:20:31;21.53;;;8.47;;
65033;SDS011;51601;51.356;12.458;2023-12-14T09:24:50;19.23;;;7.80;;
65033;SDS011;51601;51.356;12.458;2023-12-14T09:29:15;20.58;;;7.63;;
65033;SDS011;51601;51.356;12.458;2023-12-14T09:33:33;20.20;;;7.93;;
65033;SDS011;51601;51.356;12.458;2023-12-14T09:37:52;17.20;;;6.93;;
65033;SDS011;51601;51.356;12.458;2023-12-14T09:42:12;19.88;;;8.00;;
65033;SDS011;51601;51.356;12.458;2023-12-14T09:46:36;18.17;;;6.87;;
65033;SDS011;51601;51.356;12.458;2023-12-14T09:50:57;15.93;;;6.25;;
65033;SDS011;51601;51.356;12.458;2023-12-14T09:55:17;13.73;;;5.63;;
65033;SDS011;51601;51.356;12.458;2023-12-14T09:59:37;13.00;;;5.25;;
65033;SDS011;51601;51.356;12.458;2023-12-14T10:04:06;14.73;;;5.80;;
65033;SDS011;51601;51.356;12.458;2023-12-14T10:08:29;12.95;;;5.07;;
65033;SDS011;51601;51.356;12.458;2023-12-14T10:12:54;12.70;;;5.07;;
65033;SDS011;51601;51.356;12.458;2023-12-14T10:17:14;11.47;;;4.23;;
65033;SDS011;51601;51.356;12.458;2023-12-14T10:21:41;14.52;;;5.65;;
65033;SDS011;51601;51.356;12.458;2023-12-14T10:25:58;12.82;;;5.25;;
65033;SDS011;51601;51.356;12.458;2023-12-14T10:30:19;12.30;;;5.00;;
65033;SDS011;51601;51.356;12.458;2023-12-14T10:34:38;16.77;;;6.28;;
65033;SDS011;51601;51.356;12.458;2023-12-14T10:39:00;14.38;;;5.50;;
65033;SDS011;51601;51.356;12.458;2023-12-14T10:43:20;16.77;;;6.30;;
65033;SDS011;51601;51.356;12.458;2023-12-14T10:48:07;13.43;;;5.33;;
65033;SDS011;51601;51.356;12.458;2023-12-14T10:52:27;15.85;;;5.70;;
65033;SDS011;51601;51.356;12.458;2023-12-14T10:56:50;14.80;;;5.90;;
65033;SDS011;51601;51.356;12.458;2023-12-14T11:01:13;13.43;;;4.70;;
65033;SDS011;51601;51.356;12.458;2023-12-14T11:05:35;13.50;;;5.05;;
65033;SDS011;51601;51.356;12.458;2023-12-14T11:09:54;11.50;;;4.75;;
65033;SDS011;51601;51.356;12.458;2023-12-14T11:14:12;12.10;;;5.07;;
65033;SDS011;51601;51.356;12.458;2023-12-14T11:18:36;14.82;;;5.05;;
65033;SDS011;51601;51.356;12.458;2023-12-14T11:22:56;12.10;;;4.80;;
65033;SDS011;51601;51.356;12.458;2023-12-14T11:27:26;13.27;;;4.78;;
65033;SDS011;51601;51.356;12.458;2023-12-14T11:31:46;11.00;;;4.30;;
65033;SDS011;51601;51.356;12.458;2023-12-14T11:36:04;12.73;;;4.68;;
65033;SDS011;51601;51.356;12.458;2023-12-14T11:40:27;11.52;;;4.10;;
65033;SDS011;51601;51.356;12.458;2023-12-14T11:44:46;12.83;;;4.40;;
65033;SDS011;51601;51.356;12.458;2023-12-14T11:49:04;10.63;;;4.35;;
65033;SDS011;51601;51.356;12.458;2023-12-14T11:53:29;11.60;;;3.85;;
65033;SDS011;51601;51.356;12.458;2023-12-14T11:57:51;9.47;;;3.40;;
65033;SDS011;51601;51.356;12.458;2023-12-14T12:02:08;9.77;;;3.22;;
65033;SDS011;51601;51.356;12.458;2023-12-14T12:06:27;11.45;;;3.67;;
65033;SDS011;51601;51.356;12.458;2023-12-14T12:10:47;10.93;;;3.70;;
65033;SDS011;51601;51.356;12.458;2023-12-14T12:15:11;9.47;;;3.37;;
65033;SDS011;51601;51.356;12.458;2023-12-14T12:19:29;11.00;;;3.45;;
65033;SDS011;51601;51.356;12.458;2023-12-14T12:23:47;9.00;;;3.28;;
65033;SDS011;51601;51.356;12.458;2023-12-14T12:28:05;11.07;;;3.93;;
65033;SDS011;51601;51.356;12.458;2023-12-14T12:32:25;10.25;;;3.60;;
65033;SDS011;51601;51.356;12.458;2023-12-14T12:36:45;10.07;;;4.15;;
65033;SDS011;51601;51.356;12.458;2023-12-14T12:41:03;10.57;;;4.13;;
65033;SDS011;51601;51.356;12.458;2023-12-14T12:45:21;11.30;;;3.80;;
65033;SDS011;51601;51.356;12.458;2023-12-14T12:49:43;10.25;;;4.53;;
65033;SDS011;51601;51.356;12.458;2023-12-14T12:54:03;10.80;;;4.68;;
65033;SDS011;51601;51.356;12.458;2023-12-14T12:58:40;10.27;;;4.03;;
65033;SDS011;51601;51.356;12.458;2023-12-14T13:03:04;10.93;;;4.43;;
65033;SDS011;51601;51.356;12.458;2023-12-14T13:07:27;10.27;;;4.30;;
65033;SDS011;51601;51.356;12.458;2023-12-14T13:11:46;9.43;;;4.30;;
65033;SDS011;51601;51.356;12.458;2023-12-14T13:16:07;12.02;;;4.72;;
65033;SDS011;51601;51.356;12.458;2023-12-14T13:20:32;11.88;;;4.45;;
65033;SDS011;51601;51.356;12.458;2023-12-14T13:24:54;13.27;;;5.50;;
65033;SDS011;51601;51.356;12.458;2023-12-14T13:29:13;12.07;;;5.10;;
65033;SDS011;51601;51.356;12.458;2023-12-14T13:33:31;13.07;;;5.95;;
65033;SDS011;51601;51.356;12.458;2023-12-14T13:37:50;11.90;;;4.38;;
65033;SDS011;51601;51.356;12.458;2023-12-14T13:42:09;11.77;;;4.20;;
65033;SDS011;51601;51.356;12.458;2023-12-14T13:46:29;14.23;;;5.30;;
65033;SDS011;51601;51.356;12.458;2023-12-14T13:50:50;13.63;;;5.55;;
65033;SDS011;51601;51.356;12.458;2023-12-14T13:55:11;14.03;;;5.97;;
65033;SDS011;51601;51.356;12.458;2023-12-14T13:59:30;14.43;;;5.93;;
65033;SDS011;51601;51.356;12.458;2023-12-14T14:03:56;13.60;;;5.45;;
65033;SDS011;51601;51.356;12.458;2023-12-14T14:08:14;15.40;;;5.80;;
65033;SDS011;51601;51.356;12.458;2023-12-14T14:17:59;15.05;;;5.78;;
65033;SDS011;51601;51.356;12.458;2023-12-14T14:22:19;14.90;;;5.32;;
65033;SDS011;51601;51.356;12.458;2023-12-14T14:37:30;25.30;;;8.85;;
65033;SDS011;51601;51.356;12.458;2023-12-14T14:41:50;21.73;;;8.20;;
65033;SDS011;51601;51.356;12.458;2023-12-14T14:46:08;24.23;;;9.77;;
65033;SDS011;51601;51.356;12.458;2023-12-14T14:50:26;24.67;;;9.85;;
65033;SDS011;51601;51.356;12.458;2023-12-14T14:54:55;22.30;;;8.90;;
65033;SDS011;51601;51.356;12.458;2023-12-14T14:59:14;22.30;;;9.60;;
65033;SDS011;51601;51.356;12.458;2023-12-14T15:03:32;24.92;;;9.13;;
65033;SDS011;51601;51.356;12.458;2023-12-14T15:07:55;23.08;;;9.57;;
65033;SDS011;51601;51.356;12.458;2023-12-14T15:12:16;26.27;;;8.63;;
65033;SDS011;51601;51.356;12.458;2023-12-14T15:16:35;23.98;;;8.32;;
65033;SDS011;51601;51.356;12.458;2023-12-14T15:20:54;27.83;;;9.55;;
65033;SDS011;51601;51.356;12.458;2023-12-14T15:25:12;28.97;;;10.33;;
65033;SDS011;51601;51.356;12.458;2023-12-14T15:29:34;26.08;;;10.30;;
65033;SDS011;51601;51.356;12.458;2023-12-14T15:33:54;28.63;;;10.00;;
65033;SDS011;51601;51.356;12.458;2023-12-14T15:38:12;26.00;;;10.20;;
65033;SDS011;51601;51.356;12.458;2023-12-14T15:42:33;33.85;;;11.13;;
65033;SDS011;51601;51.356;12.458;2023-12-14T15:46:53;31.58;;;11.07;;
65033;SDS011;51601;51.356;12.458;2023-12-14T15:51:12;36.55;;;13.00;;
65033;SDS011;51601;51.356;12.458;2023-12-14T15:55:30;32.90;;;12.37;;
65033;SDS011;51601;51.356;12.458;2023-12-14T15:59:49;31.52;;;11.35;;
65033;SDS011;51601;51.356;12.458;2023-12-14T16:04:08;34.05;;;10.75;;
65033;SDS011;51601;51.356;12.458;2023-12-14T16:08:28;28.47;;;10.60;;
65033;SDS011;51601;51.356;12.458;2023-12-14T16:12:46;25.80;;;10.57;;
65033;SDS011;51601;51.356;12.458;2023-12-14T16:17:04;28.80;;;10.65;;
65033;SDS011;51601;51.356;12.458;2023-12-14T16:21:23;27.53;;;10.27;;
65033;SDS011;51601;51.356;12.458;2023-12-14T16:25:40;27.38;;;10.38;;
65033;SDS011;51601;51.356;12.458;2023-12-14T16:30:01;26.77;;;9.77;;
65033;SDS011;51601;51.356;12.458;2023-12-14T16:34:19;29.45;;;11.18;;
65033;SDS011;51601;51.356;12.458;2023-12-14T16:38:41;26.57;;;10.87;;
65033;SDS011;51601;51.356;12.458;2023-12-14T16:43:01;23.98;;;8.63;;
65033;SDS011;51601;51.356;12.458;2023-12-14T16:47:19;28.08;;;10.88;;
65033;SDS011;51601;51.356;12.458;2023-12-14T16:51:37;29.53;;;10.57;;
65033;SDS011;51601;51.356;12.458;2023-12-14T16:55:57;27.63;;;10.35;;
65033;SDS011;51601;51.356;12.458;2023-12-14T17:00:18;28.75;;;10.15;;
65033;SDS011;51601;51.356;12.458;2023-12-14T17:04:44;29.83;;;10.67;;
65033;SDS011;51601;51.356;12.458;2023-12-14T17:09:02;30.02;;;10.77;;
65033;SDS011;51601;51.356;12.458;2023-12-14T17:13:22;29.00;;;10.73;;
65033;SDS011;51601;51.356;12.458;2023-12-14T17:17:41;24.77;;;10.00;;
65033;SDS011;51601;51.356;12.458;2023-12-14T17:21:59;28.83;;;9.90;;
65033;SDS011;51601;51.356;12.458;2023-12-14T17:26:17;28.90;;;10.25;;
65033;SDS011;51601;51.356;12.458;2023-12-14T17:30:40;28.00;;;9.57;;
65033;SDS011;51601;51.356;12.458;2023-12-14T17:35:00;25.80;;;9.07;;
65033;SDS011;51601;51.356;12.458;2023-12-14T17:39:18;23.23;;;7.57;;
65033;SDS011;51601;51.356;12.458;2023-12-14T17:43:36;19.08;;;6.75;;
65033;SDS011;51601;51.356;12.458;2023-12-14T17:47:59;20.57;;;6.50;;
65033;SDS011;51601;51.356;12.458;2023-12-14T17:52:18;20.63;;;6.43;;
65033;SDS011;51601;51.356;12.458;2023-12-14T17:56:36;17.02;;;7.10;;
65033;SDS011;51601;51.356;12.458;2023-12-14T18:00:54;22.20;;;7.63;;
65033;SDS011;51601;51.356;12.458;2023-12-14T18:05:16;20.13;;;6.60;;
65033;SDS011;51601;51.356;12.458;2023-12-14T18:09:36;20.90;;;7.50;;
65033;SDS011;51601;51.356;12.458;2023-12-14T18:13:54;20.53;;;7.47;;
65033;SDS011;51601;51.356;12.458;2023-12-14T18:18:12;19.25;;;7.28;;
65033;SDS011;51601;51.356;12.458;2023-12-14T18:22:33;21.27;;;7.30;;
65033;SDS011;51601;51.356;12.458;2023-12-14T18:26:51;20.07;;;7.63;;
65033;SDS011;51601;51.356;12.458;2023-12-14T18:31:09;21.05;;;8.10;;
65033;SDS011;51601;51.356;12.458;2023-12-14T18:35:27;21.95;;;7.50;;
65033;SDS011;51601;51.356;12.458;2023-12-14T18:39:47;19.50;;;6.80;;
65033;SDS011;51601;51.356;12.458;2023-12-14T18:44:07;20.00;;;6.93;;
65033;SDS011;51601;51.356;12.458;2023-12-14T18:48:25;19.10;;;7.28;;
65033;SDS011;51601;51.356;12.458;2023-12-14T18:52:43;19.80;;;6.57;;
65033;SDS011;51601;51.356;12.458;2023-12-14T18:57:03;17.02;;;6.53;;
65033;SDS011;51601;51.356;12.458;2023-12-14T19:01:22;16.15;;;5.63;;
65033;SDS011;51601;51.356;12.458;2023-12-14T19:05:43;13.65;;;5.30;;
65033;SDS011;51601;51.356;12.458;2023-12-14T19:10:02;14.87;;;5.63;;
65033;SDS011;51601;51.356;12.458;2023-12-14T19:14:24;14.65;;;5.45;;
65033;SDS011;51601;51.356;12.458;2023-12-14T19:18:44;15.40;;;5.57;;
65033;SDS011;51601;51.356;12.458;2023-12-14T19:23:01;16.27;;;5.70;;
65033;SDS011;51601;51.356;12.458;2023-12-14T19:27:23;18.98;;;5.85;;
65033;SDS011;51601;51.356;12.458;2023-12-14T19:31:45;15.82;;;6.28;;
65033;SDS011;51601;51.356;12.458;2023-12-14T19:36:06;17.53;;;6.00;;
65033;SDS011;51601;51.356;12.458;2023-12-14T19:40:29;19.38;;;6.95;;
65033;SDS011;51601;51.356;12.458;2023-12-14T19:44:47;19.65;;;7.72;;
65033;SDS011;51601;51.356;12.458;2023-12-14T19:49:06;18.58;;;6.30;;
65033;SDS011;51601;51.356;12.458;2023-12-14T19:53:23;18.37;;;6.20;;
65033;SDS011;51601;51.356;12.458;2023-12-14T19:57:41;17.70;;;6.47;;
65033;SDS011;51601;51.356;12.458;2023-12-14T20:01:59;23.55;;;7.25;;
65033;SDS011;51601;51.356;12.458;2023-12-14T20:06:22;21.80;;;7.30;;
65033;SDS011;51601;51.356;12.458;2023-12-14T20:10:42;20.65;;;7.82;;
65033;SDS011;51601;51.356;12.458;2023-12-14T20:15:03;20.55;;;7.13;;
65033;SDS011;51601;51.356;12.458;2023-12-14T20:19:21;20.40;;;7.03;;
65033;SDS011;51601;51.356;12.458;2023-12-14T20:23:44;25.05;;;7.72;;
65033;SDS011;51601;51.356;12.458;2023-12-14T20:28:04;19.88;;;7.50;;
65033;SDS011;51601;51.356;12.458;2023-12-14T20:32:27;21.83;;;7.60;;
65033;SDS011;51601;51.356;12.458;2023-12-14T20:36:45;19.93;;;7.13;;
65033;SDS011;51601;51.356;12.458;2023-12-14T20:41:05;22.85;;;7.47;;
65033;SDS011;51601;51.356;12.458;2023-12-14T20:45:25;23.60;;;7.45;;
65033;SDS011;51601;51.356;12.458;2023-12-14T20:49:42;22.13;;;7.77;;
65033;SDS011;51601;51.356;12.458;2023-12-14T20:54:01;23.42;;;7.82;;
65033;SDS011;51601;51.356;12.458;2023-12-14T20:58:20;22.42;;;7.50;;
65033;SDS011;51601;51.356;12.458;2023-12-14T21:02:40;16.50;;;6.20;;
65033;SDS011;51601;51.356;12.458;2023-12-14T21:06:58;15.10;;;5.55;;
65033;SDS011;51601;51.356;12.458;2023-12-14T21:11:19;18.25;;;7.35;;
65033;SDS011;51601;51.356;12.458;2023-12-14T21:15:41;20.60;;;7.72;;
65033;SDS011;51601;51.356;12.458;2023-12-14T21:19:58;22.67;;;7.93;;
65033;SDS011;51601;51.356;12.458;2023-12-14T21:24:16;26.60;;;9.50;;
65033;SDS011;51601;51.356;12.458;2023-12-14T21:28:41;27.15;;;8.30;;
65033;SDS011;51601;51.356;12.458;2023-12-14T21:33:00;28.87;;;9.73;;
65033;SDS011;51601;51.356;12.458;2023-12-14T21:37:23;28.08;;;9.30;;
65033;SDS011;51601;51.356;12.458;2023-12-14T21:41:44;27.55;;;9.32;;
65033;SDS011;51601;51.356;12.458;2023-12-14T21:46:02;30.13;;;10.03;;
65033;SDS011;51601;51.356;12.458;2023-12-14T21:50:22;30.42;;;9.55;;
65033;SDS011;51601;51.356;12.458;2023-12-14T21:54:41;29.58;;;11.00;;
65033;SDS011;51601;51.356;12.458;2023-12-14T21:58:59;26.52;;;9.55;;
65033;SDS011;51601;51.356;12.458;2023-12-14T22:03:17;26.33;;;9.30;;
65033;SDS011;51601;51.356;12.458;2023-12-14T22:07:40;25.48;;;8.88;;
65033;SDS011;51601;51.356;12.458;2023-12-14T22:11:56;24.73;;;8.93;;
65033;SDS011;51601;51.356;12.458;2023-12-14T22:16:14;25.77;;;9.57;;
65033;SDS011;51601;51.356;12.458;2023-12-14T22:20:32;26.25;;;9.70;;
65033;SDS011;51601;51.356;12.458;2023-12-14T22:24:52;23.58;;;9.45;;
65033;SDS011;51601;51.356;12.458;2023-12-14T22:29:08;24.13;;;9.00;;
65033;SDS011;51601;51.356;12.458;2023-12-14T22:33:27;23.63;;;9.23;;
65033;SDS011;51601;51.356;12.458;2023-12-14T22:37:45;24.83;;;9.43;;
65033;SDS011;51601;51.356;12.458;2023-12-14T22:42:07;24.27;;;9.15;;
65033;SDS011;51601;51.356;12.458;2023-12-14T22:46:27;25.50;;;9.67;;
65033;SDS011;51601;51.356;12.458;2023-12-14T22:50:45;23.00;;;9.57;;
65033;SDS011;51601;51.356;12.458;2023-12-14T22:55:03;25.38;;;9.15;;
65033;SDS011;51601;51.356;12.458;2023-12-14T22:59:22;21.63;;;8.20;;
65033;SDS011;51601;51.356;12.458;2023-12-14T23:03:39;23.70;;;9.20;;
65033;SDS011;51601;51.356;12.458;2023-12-14T23:07:57;21.95;;;8.90;;
65033;SDS011;51601;51.356;12.458;2023-12-14T23:12:15;21.37;;;8.87;;
65033;SDS011;51601;51.356;12.458;2023-12-14T23:16:35;21.45;;;8.93;;
65033;SDS011;51601;51.356;12.458;2023-12-14T23:20:51;24.05;;;9.10;;
65033;SDS011;51601;51.356;12.458;2023-12-14T23:25:09;22.45;;;8.75;;
65033;SDS011;51601;51.356;12.458;2023-12-14T23:29:28;23.00;;;9.70;;
65033;SDS011;51601;51.356;12.458;2023-12-14T23:33:47;24.00;;;9.48;;
65033;SDS011;51601;51.356;12.458;2023-12-14T23:38:04;21.48;;;8.63;;
65033;SDS011;51601;51.356;12.458;2023-12-14T23:42:22;23.90;;;9.53;;
65033;SDS011;51601;51.356;12.458;2023-12-14T23:46:40;23.58;;;8.98;;
65033;SDS011;51601;51.356;12.458;2023-12-14T23:50:59;25.13;;;9.00;;
65033;SDS011;51601;51.356;12.458;2023-12-14T23:55:16;24.57;;;9.27;;
65033;SDS011;51601;51.356;12.458;2023-12-14T23:59:37;26.55;;;9.43;;
